Time;durP1;ratioP1;P1;durP2;ratioP2;P2;SDS_P1;SDS_P2;PMS_P1;PMS_P2;Temp;Humidity;BMP_temperature;BMP_pressure;BME280_temperature;BME280_humidity;BME280_pressure;Samples;Min_cycle;Max_cycle;Signal;HPM_P1;HPM_P2
2022/05/31 00:02:23;;;;;;;0.22;0.22;;;20.30;55.60;;;;;;4978765;28;20138;-13
2022/05/31 00:04:49;;;;;;;1.05;0.20;;;20.30;55.60;;;;;;4975655;28;20114;-13
2022/05/31 00:07:15;;;;;;;0.50;0.30;;;20.30;55.70;;;;;;4978850;28;20125;-13
2022/05/31 00:09:41;;;;;;;0.65;0.20;;;20.20;55.80;;;;;;4979419;28;20415;-14
2022/05/31 00:12:07;;;;;;;0.20;0.20;;;20.20;56.40;;;;;;4977735;28;20046;-13
2022/05/31 00:14:32;;;;;;;0.40;0.30;;;20.20;55.70;;;;;;4979208;28;20093;-13
2022/05/31 00:17:00;;;;;;;1.77;0.30;;;20.30;55.80;;;;;;4978841;28;20042;-13
2022/05/31 00:19:26;;;;;;;0.35;0.20;;;20.30;55.80;;;;;;4973791;28;20047;-12
2022/05/31 00:21:55;;;;;;;0.30;0.20;;;20.20;55.70;;;;;;4978940;28;20133;-12
2022/05/31 00:24:21;;;;;;;0.20;0.20;;;20.30;55.70;;;;;;4977736;28;20050;-12
2022/05/31 00:26:47;;;;;;;1.75;0.22;;;20.30;55.80;;;;;;4979516;28;20050;-13
2022/05/31 00:29:13;;;;;;;0.43;0.20;;;20.20;55.80;;;;;;4978086;28;20038;-13
2022/05/31 00:31:41;;;;;;;0.17;0.15;;;20.30;55.80;;;;;;4978620;28;20047;-13
2022/05/31 00:34:07;;;;;;;0.20;0.20;;;20.30;55.80;;;;;;4977624;28;20094;-13
2022/05/31 00:36:33;;;;;;;0.35;0.20;;;20.20;55.80;;;;;;4978268;28;20571;-14
2022/05/31 00:38:59;;;;;;;0.20;0.20;;;20.20;55.70;;;;;;4961073;28;20475;-13
2022/05/31 00:41:25;;;;;;;0.55;0.13;;;20.20;55.70;;;;;;4978970;28;20062;-13
2022/05/31 00:43:57;;;;;;;0.10;0.10;;;20.30;55.80;;;;;;4978812;28;20057;-13
2022/05/31 00:46:24;;;;;;;0.22;0.20;;;20.20;55.70;;;;;;4978291;28;20478;-14
2022/05/31 00:48:55;;;;;;;1.13;0.20;;;20.20;55.70;;;;;;4978025;28;20512;-14
2022/05/31 00:51:21;;;;;;;0.10;0.10;;;20.30;55.80;;;;;;4961304;28;20043;-13
2022/05/31 00:53:53;;;;;;;0.43;0.20;;;20.20;55.70;;;;;;4973501;28;20448;-14
2022/05/31 00:56:21;;;;;;;0.32;0.30;;;20.20;55.90;;;;;;4990232;28;20502;-14
2022/05/31 00:58:58;;;;;;;0.40;0.40;;;20.20;56.00;;;;;;4990596;28;20046;-13
2022/05/31 01:01:24;;;;;;;0.10;0.10;;;20.30;55.90;;;;;;4960808;28;20133;-13
2022/05/31 01:03:50;;;;;;;0.15;0.15;;;20.20;55.90;;;;;;4978335;28;20081;-13
2022/05/31 01:06:15;;;;;;;0.30;0.30;;;20.30;55.90;;;;;;4976884;28;20063;-12
2022/05/31 01:08:44;;;;;;;1.00;0.32;;;20.20;55.90;;;;;;4978787;28;20504;-12
2022/05/31 01:11:10;;;;;;;0.20;0.20;;;20.30;55.90;;;;;;4981487;28;20051;-13
2022/05/31 01:13:35;;;;;;;0.20;0.20;;;20.30;55.90;;;;;;4960538;28;20045;-12
2022/05/31 01:16:03;;;;;;;0.20;0.20;;;20.30;55.90;;;;;;4974424;28;20042;-13
2022/05/31 01:18:29;;;;;;;0.55;0.20;;;20.20;55.90;;;;;;4978571;28;20047;-14
2022/05/31 01:20:55;;;;;;;0.30;0.20;;;20.30;55.90;;;;;;4977976;28;20046;-13
2022/05/31 01:23:20;;;;;;;0.20;0.20;;;20.20;55.90;;;;;;4977046;28;20061;-13
2022/05/31 01:26:19;;;;;;;0.20;0.20;;;20.20;56.00;;;;;;4961286;28;20046;-13
2022/05/31 01:29:05;;;;;;;0.35;0.35;;;20.20;56.00;;;;;;4972537;28;20046;-13
2022/05/31 01:31:39;;;;;;;0.10;0.10;;;20.20;56.00;;;;;;4969452;28;20043;-12
2022/05/31 01:34:46;;;;;;;0.28;0.28;;;20.20;56.00;;;;;;4975009;28;20055;-13
2022/05/31 01:37:12;;;;;;;0.15;0.15;;;20.30;56.00;;;;;;4965270;28;20050;-12
2022/05/31 01:39:47;;;;;;;0.35;0.20;;;20.30;56.00;;;;;;4977605;28;20049;-14
2022/05/31 01:42:14;;;;;;;0.60;0.20;;;20.30;55.90;;;;;;4975262;28;20051;-13
2022/05/31 01:44:42;;;;;;;0.20;0.20;;;20.20;56.00;;;;;;4976199;28;20051;-13
2022/05/31 01:47:08;;;;;;;0.17;0.17;;;20.20;56.00;;;;;;4976929;28;20061;-13
2022/05/31 01:49:35;;;;;;;0.20;0.20;;;20.20;56.10;;;;;;4978224;28;20034;-12
2022/05/31 01:52:02;;;;;;;0.30;0.30;;;20.20;56.00;;;;;;4975037;28;20046;-13
2022/05/31 01:54:27;;;;;;;0.20;0.20;;;20.30;56.10;;;;;;4978041;28;20440;-13
2022/05/31 01:56:57;;;;;;;0.70;0.20;;;20.20;56.00;;;;;;4976184;28;20129;-12
2022/05/31 01:59:23;;;;;;;0.47;0.32;;;20.20;56.10;;;;;;4977060;28;20552;-13
2022/05/31 02:01:48;;;;;;;0.20;0.20;;;20.20;56.10;;;;;;4972648;28;20564;-14
2022/05/31 02:04:15;;;;;;;1.48;0.30;;;20.20;56.10;;;;;;4965149;28;20039;-13
2022/05/31 02:06:41;;;;;;;0.22;0.20;;;20.20;56.10;;;;;;4960258;28;20043;-14
2022/05/31 02:09:08;;;;;;;0.17;0.17;;;20.20;56.10;;;;;;4976411;28;20058;-12
2022/05/31 02:11:34;;;;;;;0.60;0.22;;;20.20;56.20;;;;;;4977816;28;20055;-13
2022/05/31 02:14:00;;;;;;;0.32;0.32;;;20.20;56.10;;;;;;4975046;28;20089;-15
2022/05/31 02:16:27;;;;;;;0.50;0.20;;;20.20;56.10;;;;;;4977393;28;20049;-12
2022/05/31 02:21:36;;;;;;;;;;;20.20;56.20;;;;;;4977426;28;20094;-12
2022/05/31 02:24:10;;;;;;;0.20;0.20;;;20.20;56.20;;;;;;4976127;28;19926;-12
2022/05/31 02:26:36;;;;;;;0.20;0.20;;;20.20;56.20;;;;;;4976842;28;20466;-13
2022/05/31 02:29:01;;;;;;;0.20;0.20;;;20.20;56.20;;;;;;4977202;28;20043;-12
2022/05/31 02:31:28;;;;;;;0.20;0.17;;;20.10;56.30;;;;;;4958366;28;20195;-13
2022/05/31 02:33:54;;;;;;;0.20;0.20;;;20.20;56.30;;;;;;4957999;28;20051;-12
2022/05/31 02:36:20;;;;;;;0.10;0.10;;;20.20;56.20;;;;;;4959578;28;20074;-13
2022/05/31 02:38:45;;;;;;;0.35;0.20;;;20.20;56.20;;;;;;4975755;28;20423;-13
2022/05/31 02:41:11;;;;;;;0.17;0.10;;;20.20;56.20;;;;;;4976404;28;20047;-13
2022/05/31 02:43:36;;;;;;;0.10;0.10;;;20.20;56.30;;;;;;4976939;28;20078;-13
2022/05/31 02:46:03;;;;;;;0.30;0.20;;;20.20;56.40;;;;;;4976260;28;20073;-15
2022/05/31 02:48:29;;;;;;;0.10;0.10;;;20.10;56.40;;;;;;4976533;28;20114;-13
2022/05/31 02:50:55;;;;;;;0.20;0.10;;;20.10;56.30;;;;;;4976807;28;20043;-13
2022/05/31 02:53:20;;;;;;;0.10;0.10;;;20.10;56.30;;;;;;4975629;28;20082;-13
2022/05/31 02:55:46;;;;;;;0.10;0.10;;;20.10;56.30;;;;;;4976775;28;20090;-13
2022/05/31 02:58:12;;;;;;;0.28;0.28;;;20.10;56.40;;;;;;4976191;28;20511;-12
2022/05/31 03:00:37;;;;;;;0.30;0.25;;;20.10;56.20;;;;;;4976204;28;20515;-13
2022/05/31 03:03:03;;;;;;;0.28;0.15;;;20.20;56.30;;;;;;4976456;28;20056;-13
2022/05/31 03:05:29;;;;;;;0.10;0.10;;;20.20;56.30;;;;;;4975933;28;20039;-14
2022/05/31 03:07:54;;;;;;;0.00;0.00;;;20.10;56.30;;;;;;4976742;28;20553;-13
2022/05/31 03:10:20;;;;;;;0.20;0.20;;;20.10;56.40;;;;;;4975825;28;20039;-13
2022/05/31 03:12:45;;;;;;;0.15;0.15;;;20.10;56.50;;;;;;4964923;28;20051;-12
2022/05/31 03:15:13;;;;;;;0.20;0.10;;;20.10;56.40;;;;;;4956769;28;20583;-14
2022/05/31 03:17:46;;;;;;;0.20;0.20;;;20.10;56.40;;;;;;4974501;28;20047;-13
2022/05/31 03:20:23;;;;;;;0.10;0.10;;;20.10;56.50;;;;;;4973840;28;20042;-12
2022/05/31 03:22:51;;;;;;;0.20;0.20;;;20.10;56.40;;;;;;4976450;28;20039;-13
2022/05/31 03:25:19;;;;;;;0.20;0.20;;;20.10;56.50;;;;;;4973908;28;20043;-12
2022/05/31 03:27:45;;;;;;;0.55;0.20;;;20.10;56.40;;;;;;4959432;28;20043;-12
2022/05/31 03:30:11;;;;;;;0.35;0.20;;;20.20;56.50;;;;;;4973989;28;20054;-12
2022/05/31 03:32:36;;;;;;;0.20;0.20;;;20.10;56.40;;;;;;4976419;28;20046;-13
2022/05/31 03:35:03;;;;;;;0.20;0.20;;;20.10;56.50;;;;;;4965954;28;20098;-14
2022/05/31 03:37:28;;;;;;;1.20;0.32;;;20.10;56.50;;;;;;4974197;28;20141;-12
2022/05/31 03:39:54;;;;;;;0.70;0.22;;;20.10;56.50;;;;;;4976540;28;20127;-12
2022/05/31 03:42:20;;;;;;;0.13;0.13;;;20.10;56.50;;;;;;4975006;28;20050;-15
2022/05/31 03:44:45;;;;;;;0.52;0.20;;;20.10;56.60;;;;;;4976059;28;20047;-13
2022/05/31 03:47:11;;;;;;;0.10;0.10;;;20.10;56.50;;;;;;4975872;28;20439;-13
2022/05/31 03:49:36;;;;;;;0.45;0.20;;;20.10;57.20;;;;;;4975560;28;20047;-13
2022/05/31 03:52:02;;;;;;;0.20;0.10;;;20.10;56.50;;;;;;4975934;28;20412;-12
2022/05/31 03:54:28;;;;;;;0.20;0.20;;;20.10;56.50;;;;;;4974849;28;20174;-14
2022/05/31 03:56:53;;;;;;;0.20;0.20;;;20.10;56.50;;;;;;4975686;28;20051;-13
2022/05/31 03:59:19;;;;;;;0.20;0.20;;;20.10;56.60;;;;;;4975079;28;20077;-14
2022/05/31 04:01:44;;;;;;;0.10;0.10;;;20.10;56.60;;;;;;4976412;28;20522;-13
2022/05/31 04:04:11;;;;;;;0.30;0.20;;;20.10;56.70;;;;;;4974919;28;20051;-13
2022/05/31 04:06:36;;;;;;;0.20;0.17;;;20.10;56.70;;;;;;4975482;28;20051;-12
2022/05/31 04:09:03;;;;;;;0.20;0.20;;;20.10;56.60;;;;;;4968428;28;20049;-12
2022/05/31 04:11:28;;;;;;;0.32;0.17;;;20.00;56.60;;;;;;4956360;28;20055;-12
2022/05/31 04:13:54;;;;;;;1.80;0.20;;;20.10;56.60;;;;;;4965967;28;20057;-12
2022/05/31 04:16:20;;;;;;;0.10;0.10;;;20.10;56.70;;;;;;4967040;28;20079;-12
2022/05/31 04:18:46;;;;;;;0.15;0.15;;;20.10;56.80;;;;;;4972697;28;20086;-12
2022/05/31 04:21:12;;;;;;;0.30;0.20;;;20.10;56.70;;;;;;4975341;28;20094;-13
2022/05/31 04:26:22;;;;;;;0.20;0.20;;;20.10;56.80;;;;;;4974948;28;20062;-13
2022/05/31 04:28:48;;;;;;;0.22;0.08;;;20.10;56.90;;;;;;4975848;28;20043;-13
2022/05/31 04:31:13;;;;;;;0.10;0.10;;;20.10;56.80;;;;;;4975470;28;20086;-12
2022/05/31 04:33:39;;;;;;;0.15;0.15;;;20.10;56.80;;;;;;4975279;28;20074;-13
2022/05/31 04:36:10;;;;;;;0.20;0.20;;;20.10;56.80;;;;;;4975271;28;20133;-15
2022/05/31 04:38:36;;;;;;;0.47;0.10;;;20.10;56.90;;;;;;4973844;28;20098;-12
2022/05/31 04:41:01;;;;;;;0.10;0.10;;;20.10;57.20;;;;;;4966008;28;20051;-13
2022/05/31 04:43:27;;;;;;;0.10;0.10;;;20.10;56.80;;;;;;4977290;28;20038;-13
2022/05/31 04:45:53;;;;;;;0.40;0.30;;;20.10;56.80;;;;;;4979353;28;20066;-13
2022/05/31 04:48:18;;;;;;;0.13;0.10;;;20.00;56.70;;;;;;4973463;28;20528;-14
2022/05/31 04:50:44;;;;;;;0.20;0.20;;;20.10;56.90;;;;;;4965777;28;20054;-13
2022/05/31 04:53:10;;;;;;;0.10;0.10;;;20.00;56.90;;;;;;4979115;28;20042;-12
2022/05/31 04:55:35;;;;;;;0.10;0.10;;;20.10;56.80;;;;;;4977780;28;20508;-13
2022/05/31 04:58:01;;;;;;;0.90;0.10;;;20.00;56.90;;;;;;4977153;28;20412;-13
2022/05/31 05:00:27;;;;;;;1.20;0.00;;;20.00;57.10;;;;;;4975174;28;20038;-12
2022/05/31 05:02:52;;;;;;;0.57;0.22;;;20.00;56.90;;;;;;4977308;28;20043;-12
2022/05/31 05:05:18;;;;;;;0.15;0.10;;;20.00;56.90;;;;;;4976219;28;20057;-15
2022/05/31 05:07:44;;;;;;;0.55;0.20;;;20.00;56.90;;;;;;4971055;28;20494;-13
2022/05/31 05:10:10;;;;;;;0.20;0.20;;;20.10;57.00;;;;;;4976840;28;20062;-13
2022/05/31 05:12:35;;;;;;;0.95;0.47;;;20.10;56.80;;;;;;4978182;28;20054;-13
2022/05/31 05:15:02;;;;;;;0.50;0.40;;;19.80;57.10;;;;;;4974336;28;20065;-12
2022/05/31 05:17:27;;;;;;;0.40;0.40;;;19.60;57.70;;;;;;4976946;28;20038;-13
2022/05/31 05:19:53;;;;;;;0.52;0.52;;;19.60;57.30;;;;;;4975920;28;20050;-12
2022/05/31 05:22:18;;;;;;;0.80;0.80;;;19.60;56.40;;;;;;4977875;28;20038;-13
2022/05/31 05:24:44;;;;;;;1.15;0.90;;;19.40;56.00;;;;;;4977754;28;20492;-13
2022/05/31 05:27:09;;;;;;;1.33;0.88;;;19.00;56.60;;;;;;4977209;28;20066;-13
2022/05/31 05:32:20;;;;;;;1.38;0.90;;;18.60;57.70;;;;;;4972794;28;20042;-12
2022/05/31 05:34:52;;;;;;;1.10;1.05;;;18.60;57.50;;;;;;4976619;28;20078;-12
2022/05/31 05:37:18;;;;;;;1.90;0.73;;;18.60;57.70;;;;;;4972760;28;20500;-13
2022/05/31 05:39:45;;;;;;;1.20;1.10;;;18.60;57.70;;;;;;4972826;28;20101;-12
2022/05/31 05:42:11;;;;;;;1.63;0.90;;;18.50;57.80;;;;;;4977536;28;20055;-13
2022/05/31 05:44:37;;;;;;;1.13;0.80;;;18.50;57.90;;;;;;4976237;28;20050;-12
2022/05/31 05:47:07;;;;;;;1.80;0.90;;;18.40;58.30;;;;;;4973079;28;20053;-14
2022/05/31 05:49:32;;;;;;;1.27;1.05;;;18.30;58.50;;;;;;4976499;28;20042;-14
2022/05/31 05:51:59;;;;;;;1.73;0.95;;;18.30;58.70;;;;;;4976480;28;20141;-14
2022/05/31 05:54:25;;;;;;;1.30;0.90;;;18.30;58.50;;;;;;5007878;28;20050;-13
2022/05/31 05:56:50;;;;;;;1.58;0.88;;;18.30;58.50;;;;;;4976817;28;20047;-14
2022/05/31 05:59:17;;;;;;;0.65;0.65;;;18.30;58.60;;;;;;4957762;28;20046;-14
2022/05/31 06:01:48;;;;;;;0.73;0.50;;;18.30;58.70;;;;;;4958585;28;20050;-14
2022/05/31 06:04:21;;;;;;;1.02;0.88;;;18.40;58.60;;;;;;4957060;28;20183;-14
2022/05/31 06:06:47;;;;;;;0.73;0.70;;;18.40;58.50;;;;;;4972691;28;20477;-14
2022/05/31 06:09:15;;;;;;;1.27;0.95;;;18.40;58.40;;;;;;4963984;28;20047;-13
2022/05/31 06:11:46;;;;;;;0.95;0.90;;;18.40;58.60;;;;;;4957939;28;20054;-15
2022/05/31 06:14:23;;;;;;;0.95;0.85;;;18.20;59.20;;;;;;4958381;28;20130;-14
2022/05/31 06:17:01;;;;;;;1.10;0.70;;;18.10;59.50;;;;;;4957952;28;20070;-14
2022/05/31 06:19:31;;;;;;;1.00;0.90;;;18.10;59.50;;;;;;4957774;28;20041;-14
2022/05/31 06:21:57;;;;;;;1.25;0.80;;;18.00;59.70;;;;;;4957092;28;20143;-14
2022/05/31 06:24:23;;;;;;;1.42;0.80;;;18.00;60.10;;;;;;4970362;28;20074;-14
2022/05/31 06:26:49;;;;;;;1.25;0.80;;;17.90;60.20;;;;;;4975568;28;20560;-15
2022/05/31 06:29:15;;;;;;;1.23;0.80;;;17.90;60.20;;;;;;4977503;28;20445;-14
2022/05/31 06:31:40;;;;;;;1.05;0.70;;;17.90;60.10;;;;;;4975027;28;20105;-14
2022/05/31 06:34:06;;;;;;;0.73;0.68;;;17.80;60.40;;;;;;4973501;28;20034;-14
2022/05/31 06:36:32;;;;;;;4.97;1.58;;;17.80;60.10;;;;;;4974103;28;20042;-14
2022/05/31 06:38:57;;;;;;;1.17;0.70;;;17.80;60.40;;;;;;4969156;28;20545;-15
2022/05/31 06:41:23;;;;;;;0.68;0.65;;;17.80;60.30;;;;;;4972920;28;20046;-14
2022/05/31 06:43:49;;;;;;;0.50;0.50;;;17.80;60.50;;;;;;4970008;28;20053;-14
2022/05/31 06:46:15;;;;;;;1.25;0.90;;;17.60;61.50;;;;;;4972066;28;20066;-13
2022/05/31 06:48:41;;;;;;;1.58;0.88;;;17.70;61.10;;;;;;4975297;28;20055;-14
2022/05/31 06:51:12;;;;;;;0.60;0.60;;;17.70;61.10;;;;;;4963939;28;20047;-13
2022/05/31 06:59:08;;;;;;;1.17;0.65;;;18.20;59.80;;;;;;4975486;28;20569;-13
2022/05/31 07:01:37;;;;;;;0.65;0.50;;;18.40;59.30;;;;;;4975287;28;20039;-14
2022/05/31 07:04:03;;;;;;;0.47;0.40;;;18.50;58.70;;;;;;4976899;28;20078;-14
2022/05/31 07:06:31;;;;;;;1.60;0.40;;;18.50;58.60;;;;;;4973653;28;20519;-14
2022/05/31 07:08:56;;;;;;;0.77;0.60;;;18.60;58.50;;;;;;4975409;28;20118;-14
2022/05/31 07:11:22;;;;;;;0.55;0.55;;;18.60;58.40;;;;;;4976263;28;20054;-14
2022/05/31 07:13:48;;;;;;;1.00;0.50;;;18.70;58.30;;;;;;4976092;28;20043;-14
2022/05/31 07:16:14;;;;;;;0.60;0.60;;;18.70;58.20;;;;;;4976736;28;20047;-14
2022/05/31 07:18:39;;;;;;;0.68;0.50;;;18.70;58.10;;;;;;4975532;28;20404;-14
2022/05/31 07:21:05;;;;;;;0.47;0.45;;;18.80;58.00;;;;;;4975735;28;20054;-14
2022/05/31 07:23:31;;;;;;;0.60;0.60;;;18.80;57.90;;;;;;4974464;28;20047;-15
2022/05/31 07:25:58;;;;;;;0.30;0.30;;;18.80;57.80;;;;;;4975906;28;20125;-13
2022/05/31 07:28:26;;;;;;;0.35;0.35;;;18.80;57.80;;;;;;4976094;28;20034;-14
2022/05/31 07:30:52;;;;;;;0.30;0.28;;;18.80;57.70;;;;;;4976652;28;20085;-13
2022/05/31 07:33:17;;;;;;;0.90;0.50;;;18.90;57.70;;;;;;4975853;28;20035;-15
2022/05/31 07:35:43;;;;;;;0.20;0.20;;;18.90;57.60;;;;;;4975506;28;20039;-13
2022/05/31 07:38:09;;;;;;;0.30;0.30;;;18.90;57.60;;;;;;4976422;28;20039;-13
2022/05/31 07:40:35;;;;;;;0.40;0.40;;;18.90;57.50;;;;;;4975872;28;20158;-14
2022/05/31 07:43:01;;;;;;;1.08;0.40;;;18.90;57.50;;;;;;4975728;28;20062;-14
2022/05/31 07:45:27;;;;;;;1.75;0.30;;;19.00;57.50;;;;;;4975880;28;20531;-14
2022/05/31 07:47:53;;;;;;;1.10;0.30;;;19.00;57.50;;;;;;4975785;28;20043;-14
2022/05/31 07:50:19;;;;;;;0.38;0.30;;;19.00;57.30;;;;;;4976256;28;20042;-13
2022/05/31 07:52:44;;;;;;;0.20;0.20;;;19.00;57.30;;;;;;4975640;28;20274;-14
2022/05/31 07:55:10;;;;;;;0.68;0.40;;;19.00;57.20;;;;;;4978426;28;20042;-13
2022/05/31 08:00:40;;;;;;;0.28;0.28;;;19.10;57.40;;;;;;4992233;28;20035;-14
2022/05/31 08:03:06;;;;;;;0.30;0.30;;;19.10;57.20;;;;;;4973754;28;20150;-13
2022/05/31 08:05:32;;;;;;;0.52;0.32;;;19.10;57.20;;;;;;4970784;28;20031;-13
2022/05/31 08:07:58;;;;;;;0.30;0.30;;;19.10;57.10;;;;;;4970956;28;20054;-13
2022/05/31 08:10:23;;;;;;;1.73;0.35;;;19.10;57.10;;;;;;4957035;28;20035;-14
2022/05/31 08:12:49;;;;;;;0.30;0.17;;;19.20;57.00;;;;;;4971210;28;20065;-14
2022/05/31 08:15:15;;;;;;;0.30;0.30;;;19.20;56.90;;;;;;4978967;28;20035;-14
2022/05/31 08:17:42;;;;;;;0.30;0.30;;;19.20;56.90;;;;;;4978547;28;20062;-14
2022/05/31 08:20:08;;;;;;;0.77;0.22;;;19.20;56.90;;;;;;4629172;28;10000190;-14
2022/05/31 08:22:34;;;;;;;0.30;0.30;;;19.20;56.90;;;;;;4974541;28;20508;-14
2022/05/31 08:25:00;;;;;;;0.82;0.30;;;19.20;56.90;;;;;;4981340;28;20118;-14
2022/05/31 08:27:26;;;;;;;0.30;0.30;;;19.20;56.90;;;;;;4974888;28;20523;-14
2022/05/31 08:29:51;;;;;;;0.30;0.30;;;19.20;56.90;;;;;;4974052;28;20389;-13
2022/05/31 08:32:17;;;;;;;0.40;0.20;;;19.30;56.90;;;;;;4974993;28;20086;-15
2022/05/31 08:34:43;;;;;;;0.30;0.30;;;19.30;56.90;;;;;;4996310;28;20537;-13
2022/05/31 08:37:09;;;;;;;0.30;0.30;;;19.30;56.80;;;;;;4974106;28;20046;-14
2022/05/31 08:39:34;;;;;;;0.20;0.10;;;19.20;56.70;;;;;;4973965;28;20058;-14
2022/05/31 08:42:10;;;;;;;0.40;0.38;;;19.30;56.60;;;;;;4974764;28;20050;-14
2022/05/31 08:44:36;;;;;;;0.30;0.30;;;19.30;56.60;;;;;;4987422;28;20133;-14
2022/05/31 08:47:04;;;;;;;0.43;0.30;;;19.30;56.50;;;;;;4974983;28;20141;-15
2022/05/31 08:52:50;;;;;;;0.20;0.20;;;19.30;56.50;;;;;;4967390;28;20104;-13
2022/05/31 08:58:17;;;;;;;0.50;0.30;;;19.40;56.30;;;;;;4973726;28;20081;-14
2022/05/31 09:00:43;;;;;;;0.30;0.30;;;19.40;56.20;;;;;;4967643;28;20089;-14
2022/05/31 09:03:24;;;;;;;0.30;0.30;;;19.40;56.10;;;;;;4976836;28;20062;-13
2022/05/31 09:06:07;;;;;;;0.75;0.30;;;19.40;56.10;;;;;;4974652;28;20050;-14
2022/05/31 09:08:44;;;;;;;0.67;0.20;;;19.50;56.10;;;;;;4971313;28;20101;-14
2022/05/31 09:11:14;;;;;;;0.40;0.20;;;19.50;56.20;;;;;;4970038;28;20075;-15
2022/05/31 09:13:43;;;;;;;0.30;0.30;;;19.50;56.30;;;;;;4992040;28;20121;-13
2022/05/31 09:16:13;;;;;;;0.40;0.30;;;19.50;56.60;;;;;;4952839;28;20046;-14
2022/05/31 09:18:44;;;;;;;0.85;0.40;;;19.50;56.70;;;;;;4972990;28;20054;-13
2022/05/31 09:21:40;;;;;;;0.40;0.30;;;19.50;56.50;;;;;;4974595;28;20046;-13
2022/05/31 09:24:17;;;;;;;0.63;0.30;;;19.60;56.60;;;;;;4973381;28;20055;-14
2022/05/31 09:27:05;;;;;;;0.43;0.30;;;19.60;56.60;;;;;;4975284;28;20102;-14
2022/05/31 09:29:40;;;;;;;1.27;0.25;;;19.60;56.70;;;;;;4984102;28;20065;-15
2022/05/31 09:32:59;;;;;;;0.57;0.47;;;19.50;56.60;;;;;;4969811;28;20086;-14
2022/05/31 09:35:52;;;;;;;0.43;0.32;;;19.60;56.40;;;;;;4947280;28;20055;-15
2022/05/31 09:38:41;;;;;;;0.30;0.30;;;19.50;56.30;;;;;;4970448;28;20133;-14
2022/05/31 09:41:18;;;;;;;1.13;0.30;;;19.50;56.20;;;;;;4949835;28;20127;-14
2022/05/31 09:43:53;;;;;;;0.28;0.28;;;19.60;56.20;;;;;;4971587;28;20134;-15
2022/05/31 09:46:27;;;;;;;0.47;0.40;;;19.60;56.10;;;;;;4957894;28;20051;-14
2022/05/31 09:48:53;;;;;;;0.68;0.40;;;19.60;56.00;;;;;;4969900;28;20049;-14
2022/05/31 09:51:25;;;;;;;1.08;0.30;;;19.60;55.90;;;;;;4972447;28;20516;-14
2022/05/31 09:59:23;;;;;;;0.40;0.30;;;19.60;55.70;;;;;;4977102;28;20129;-13
2022/05/31 10:01:48;;;;;;;0.82;0.40;;;19.70;55.60;;;;;;4976290;28;20049;-13
2022/05/31 10:04:21;;;;;;;0.60;0.30;;;19.70;55.60;;;;;;4977321;28;20527;-14
2022/05/31 10:07:06;;;;;;;0.95;0.28;;;19.70;55.50;;;;;;4975613;28;20058;-14
2022/05/31 10:09:34;;;;;;;0.45;0.17;;;19.70;55.40;;;;;;4974402;28;20047;-16
2022/05/31 10:12:04;;;;;;;0.35;0.30;;;19.70;55.40;;;;;;4977831;28;20051;-14
2022/05/31 10:14:33;;;;;;;0.30;0.30;;;19.70;55.20;;;;;;4976154;28;20031;-14
2022/05/31 10:17:35;;;;;;;0.30;0.30;;;19.70;55.30;;;;;;4991367;28;20520;-14
2022/05/31 10:20:14;;;;;;;0.98;0.35;;;19.70;55.20;;;;;;4977050;28;20086;-13
2022/05/31 10:23:04;;;;;;;0.43;0.28;;;19.70;55.10;;;;;;4974826;28;20043;-15
2022/05/31 10:25:59;;;;;;;0.43;0.20;;;19.70;55.10;;;;;;4977356;28;20051;-14
2022/05/31 10:28:52;;;;;;;0.30;0.25;;;19.80;55.00;;;;;;4964129;28;20043;-15
2022/05/31 10:31:41;;;;;;;0.47;0.30;;;19.80;54.70;;;;;;4959597;28;20452;-13
2022/05/31 10:34:36;;;;;;;0.30;0.30;;;19.80;54.70;;;;;;4960994;28;20523;-13
2022/05/31 10:37:04;;;;;;;1.55;0.25;;;19.80;54.50;;;;;;4973563;28;20050;-15
2022/05/31 10:39:36;;;;;;;0.55;0.40;;;19.80;54.70;;;;;;4972395;28;20193;-13
2022/05/31 10:42:03;;;;;;;2.78;1.35;;;19.90;55.60;;;;;;4967666;28;20054;-14
2022/05/31 10:44:32;;;;;;;1.88;1.55;;;19.90;56.00;;;;;;4974498;28;20047;-13
2022/05/31 10:47:14;;;;;;;5.40;1.67;;;19.80;56.10;;;;;;4975495;28;20046;-14
2022/05/31 10:49:41;;;;;;;4.72;1.30;;;19.80;55.80;;;;;;4964092;28;20102;-15
2022/05/31 10:52:31;;;;;;;1.17;1.08;;;19.90;55.80;;;;;;4957686;28;20110;-14
2022/05/31 10:55:02;;;;;;;1.77;1.15;;;19.80;55.80;;;;;;4971415;28;20320;-14
2022/05/31 10:57:48;;;;;;;1.67;0.80;;;19.90;55.90;;;;;;4978229;28;20090;-14
2022/05/31 11:00:35;;;;;;;1.08;0.77;;;19.80;55.70;;;;;;4628014;28;10000566;-13
2022/05/31 11:03:39;;;;;;;1.58;0.82;;;19.90;55.60;;;;;;4962388;28;20046;-14
2022/05/31 11:06:27;;;;;;;1.20;0.80;;;19.90;55.60;;;;;;4963141;28;20045;-14
2022/05/31 11:11:55;;;;;;;1.00;0.70;;;19.90;55.50;;;;;;4966431;28;20142;-14
2022/05/31 11:14:30;;;;;;;0.50;0.50;;;19.90;55.30;;;;;;4968509;28;20594;-13
2022/05/31 11:17:24;;;;;;;1.67;0.60;;;19.90;55.20;;;;;;4970664;28;21952;-14
2022/05/31 11:20:11;;;;;;;1.35;0.60;;;20.00;55.10;;;;;;4954297;28;20311;-14
2022/05/31 11:23:27;;;;;;;1.70;0.68;;;20.00;55.10;;;;;;4984391;28;20181;-14
2022/05/31 11:26:04;;;;;;;2.40;0.85;;;20.00;55.00;;;;;;4970104;28;20057;-15
2022/05/31 11:28:44;;;;;;;1.20;0.50;;;19.90;55.00;;;;;;4972559;28;20112;-14
2022/05/31 11:31:28;;;;;;;1.38;0.57;;;20.00;54.80;;;;;;4965156;28;20053;-20
2022/05/31 11:34:19;;;;;;;2.55;0.68;;;20.00;54.80;;;;;;4971425;28;20070;-15
2022/05/31 11:37:10;;;;;;;2.85;0.90;;;20.00;54.80;;;;;;4967207;28;20043;-15
2022/05/31 11:39:42;;;;;;;0.80;0.60;;;20.00;54.50;;;;;;4970645;28;20042;-13
2022/05/31 11:42:44;;;;;;;2.50;0.52;;;20.00;54.60;;;;;;4972639;28;20049;-14
2022/05/31 11:45:32;;;;;;;1.20;0.50;;;20.00;54.70;;;;;;4974235;28;20046;-13
2022/05/31 11:48:20;;;;;;;1.95;0.63;;;20.00;54.60;;;;;;4975248;28;20058;-14
2022/05/31 11:50:58;;;;;;;1.85;0.50;;;20.00;54.60;;;;;;4977776;28;20085;-14
2022/05/31 11:53:46;;;;;;;1.98;0.75;;;20.00;54.70;;;;;;4972398;28;20050;-14
2022/05/31 11:56:26;;;;;;;2.05;0.60;;;20.00;54.70;;;;;;4975196;28;20114;-14
2022/05/31 11:58:52;;;;;;;0.88;0.70;;;20.00;54.80;;;;;;4967263;28;20070;-15
2022/05/31 12:01:29;;;;;;;1.00;0.55;;;20.20;54.60;;;;;;4961596;28;20054;-14
2022/05/31 12:04:19;;;;;;;2.15;0.52;;;20.10;55.10;;;;;;4962739;28;20484;-15
2022/05/31 12:07:04;;;;;;;2.15;0.60;;;20.20;54.80;;;;;;4960843;28;20082;-14
2022/05/31 12:09:30;;;;;;;;;;;20.20;54.80;;;;;;4961386;28;20679;-15
2022/05/31 12:12:07;;;;;;;1.67;0.60;;;20.20;55.20;;;;;;4961330;28;20351;-15
2022/05/31 12:14:38;;;;;;;2.40;0.70;;;20.20;55.50;;;;;;4960871;28;20043;-15
2022/05/31 12:17:03;;;;;;;2.17;0.50;;;20.20;55.70;;;;;;4945023;28;20977;-15
2022/05/31 12:19:33;;;;;;;1.45;0.40;;;20.20;55.60;;;;;;4961374;28;20046;-15
2022/05/31 12:22:21;;;;;;;2.55;0.50;;;20.10;55.60;;;;;;4958067;28;20054;-15
2022/05/31 12:24:57;;;;;;;0.68;0.40;;;20.20;55.50;;;;;;4962536;28;20055;-14
2022/05/31 12:27:26;;;;;;;3.05;0.65;;;20.20;55.30;;;;;;4970721;28;20042;-14
2022/05/31 12:29:58;;;;;;;2.47;0.43;;;20.20;55.20;;;;;;4974271;28;20053;-14
2022/05/31 12:32:25;;;;;;;1.17;0.60;;;20.20;55.30;;;;;;4976320;28;20507;-14
2022/05/31 12:34:51;;;;;;;2.33;0.60;;;20.20;55.20;;;;;;4977712;28;20047;-14
2022/05/31 12:37:16;;;;;;;1.85;0.70;;;20.30;55.10;;;;;;4976530;28;20047;-14
2022/05/31 12:39:43;;;;;;;1.92;0.70;;;20.40;54.80;;;;;;4978493;28;20043;-15
2022/05/31 12:42:15;;;;;;;1.13;0.45;;;20.30;55.00;;;;;;4982228;28;20054;-14
2022/05/31 12:44:44;;;;;;;1.33;0.50;;;20.20;55.00;;;;;;4977609;28;20420;-16
2022/05/31 12:47:24;;;;;;;3.70;0.70;;;20.30;55.00;;;;;;4978134;28;20058;-14
2022/05/31 12:50:09;;;;;;;0.90;0.60;;;20.30;55.10;;;;;;4978182;28;20570;-14
2022/05/31 12:55:26;;;;;;;1.33;0.50;;;20.30;55.00;;;;;;4977465;28;20050;-13
2022/05/31 13:00:48;;;;;;;;;;;20.30;55.00;;;;;;4978188;28;19965;-13
2022/05/31 13:03:34;;;;;;;2.00;0.70;;;20.20;54.90;;;;;;4973095;28;19914;-13
2022/05/31 13:06:09;;;;;;;3.63;0.52;;;20.20;54.80;;;;;;4977986;28;20038;-14
2022/05/31 13:08:43;;;;;;;2.15;0.60;;;20.20;54.80;;;;;;4976818;28;20047;-15
2022/05/31 13:19:41;;;;;;;0.55;0.45;;;20.30;54.60;;;;;;4975664;28;20057;-14
2022/05/31 13:22:12;;;;;;;0.38;0.30;;;20.30;54.50;;;;;;4970829;28;20050;-14
2022/05/31 13:24:50;;;;;;;0.47;0.40;;;20.30;54.50;;;;;;4976673;28;20079;-14
2022/05/31 13:27:22;;;;;;;2.65;0.77;;;20.30;54.40;;;;;;4976035;28;20481;-14
2022/05/31 13:30:14;;;;;;;0.85;0.40;;;20.30;54.30;;;;;;4977743;28;20054;-14
2022/05/31 13:32:40;;;;;;;0.57;0.38;;;20.30;54.20;;;;;;4976488;28;20051;-14
2022/05/31 13:35:09;;;;;;;0.43;0.40;;;20.30;54.20;;;;;;4971035;28;20050;-14
2022/05/31 13:37:45;;;;;;;0.35;0.35;;;20.30;54.20;;;;;;4975573;28;20042;-16
2022/05/31 13:40:11;;;;;;;0.45;0.35;;;20.40;54.10;;;;;;4982240;28;20051;-15
2022/05/31 13:42:37;;;;;;;0.38;0.32;;;20.40;54.30;;;;;;4961007;28;20080;-14
2022/05/31 13:45:10;;;;;;;0.30;0.30;;;20.30;54.20;;;;;;4960001;28;20043;-14
2022/05/31 13:47:48;;;;;;;0.52;0.40;;;20.40;54.20;;;;;;4975594;28;20502;-13
2022/05/31 13:50:17;;;;;;;0.50;0.50;;;20.40;54.00;;;;;;4990809;28;20534;-14
2022/05/31 13:52:43;;;;;;;0.80;0.45;;;20.30;53.90;;;;;;4977786;28;20065;-14